createdAt,value
2022-09-24T00:01:38.745Z,10.64
2022-09-24T00:04:12.512Z,10.73
2022-09-24T00:06:45.922Z,10.79
2022-09-24T00:09:15.810Z,10.47
2022-09-24T00:11:48.310Z,10.38
2022-09-24T00:14:15.440Z,10.62
2022-09-24T00:16:46.629Z,10.77
2022-09-24T00:19:14.668Z,10.88
2022-09-24T00:21:42.824Z,10.63
2022-09-24T00:24:33.524Z,10.47
2022-09-24T00:27:00.801Z,10.68
2022-09-24T00:29:27.727Z,10.84
2022-09-24T00:31:54.747Z,11.00
2022-09-24T00:34:21.924Z,10.73
2022-09-24T00:36:48.754Z,10.71
2022-09-24T00:39:18.813Z,10.90
2022-09-24T00:41:48.138Z,11.00
2022-09-24T00:44:48.057Z,10.64
2022-09-24T00:47:35.065Z,10.66
2022-09-24T00:50:08.322Z,10.58
2022-09-24T00:52:40.455Z,10.51
2022-09-24T00:55:09.242Z,10.69
2022-09-24T00:57:37.713Z,10.85
2022-09-24T01:00:07.154Z,10.89
2022-09-24T01:02:37.749Z,10.63
2022-09-24T01:05:04.917Z,10.79
2022-09-24T01:07:33.542Z,10.89
2022-09-24T01:10:00.617Z,10.79
2022-09-24T01:12:50.463Z,10.42
2022-09-24T01:15:28.459Z,10.44
2022-09-24T01:18:01.097Z,10.64
2022-09-24T01:20:43.120Z,10.79
2022-09-24T01:23:29.229Z,10.56
2022-09-24T01:26:21.078Z,10.53
2022-09-24T01:29:19.310Z,10.68
2022-09-24T01:31:54.208Z,10.49
2022-09-24T01:34:27.097Z,10.38
2022-09-24T01:36:57.636Z,10.58
2022-09-24T01:39:26.047Z,10.75
2022-09-24T01:41:54.438Z,10.79
2022-09-24T01:44:21.622Z,10.44
2022-09-24T01:46:52.167Z,10.47
2022-09-24T01:49:20.884Z,10.42
2022-09-24T01:51:52.377Z,10.20
2022-09-24T01:54:27.487Z,10.22
2022-09-24T01:57:19.219Z,10.12
2022-09-24T02:00:02.220Z,10.19
2022-09-24T02:02:37.065Z,10.40
2022-09-24T02:05:14.932Z,10.55
2022-09-24T02:08:03.189Z,10.37
2022-09-24T02:10:38.249Z,10.42
2022-09-24T02:13:10.542Z,10.50
2022-09-24T02:15:41.565Z,10.41
2022-09-24T02:18:11.811Z,10.20
2022-09-24T02:20:44.952Z,10.37
2022-09-24T02:23:15.249Z,10.14
2022-09-24T02:25:46.425Z,10.23
2022-09-24T02:28:13.380Z,10.10
2022-09-24T02:30:47.168Z,10.00
2022-09-24T02:33:33.640Z,10.12
2022-09-24T02:36:00.486Z,9.92
2022-09-24T02:38:28.291Z,10.12
2022-09-24T02:40:55.608Z,9.98
2022-09-24T02:43:22.432Z,9.99
2022-09-24T02:45:49.112Z,10.00
2022-09-24T02:48:15.903Z,9.93
2022-09-24T02:50:42.606Z,10.12
2022-09-24T02:53:09.218Z,9.90
2022-09-24T02:55:36.644Z,9.93
2022-09-24T02:58:03.253Z,9.99
2022-09-24T03:00:29.930Z,9.82
2022-09-24T03:02:56.635Z,9.93
2022-09-24T03:05:23.407Z,9.86
2022-09-24T03:07:50.369Z,9.92
2022-09-24T03:10:17.160Z,10.05
2022-09-24T03:12:43.905Z,9.85
2022-09-24T03:15:11.039Z,9.93
2022-09-24T03:17:37.969Z,9.80
2022-09-24T03:20:05.155Z,9.73
2022-09-24T03:22:32.009Z,9.93
2022-09-24T03:24:58.805Z,9.74
2022-09-24T03:27:25.455Z,9.83
2022-09-24T03:30:10.688Z,9.81
2022-09-24T03:32:38.482Z,9.76
2022-09-24T03:35:05.611Z,9.92
2022-09-24T03:37:33.477Z,9.74
2022-09-24T03:40:00.169Z,9.85
2022-09-24T03:42:26.906Z,9.73
2022-09-24T03:44:54.681Z,9.72
2022-09-24T03:47:21.302Z,9.89
2022-09-24T03:49:50.125Z,9.74
2022-09-24T03:52:17.253Z,9.85
2022-09-24T03:54:47.363Z,9.82
2022-09-24T03:57:15.065Z,9.92
2022-09-24T03:59:42.779Z,10.01
2022-09-24T04:02:10.528Z,9.68
2022-09-24T04:04:37.843Z,9.76
2022-09-24T04:07:05.190Z,9.62
2022-09-24T04:09:31.930Z,9.62
2022-09-24T04:11:59.249Z,9.70
2022-09-24T04:14:25.882Z,9.51
2022-09-24T04:16:53.214Z,9.66
2022-09-24T04:19:19.853Z,9.51
2022-09-24T04:21:48.984Z,9.60
2022-09-24T04:24:17.804Z,9.67
2022-09-24T04:26:46.582Z,9.58
2022-09-24T04:29:13.579Z,9.74
2022-09-24T04:31:40.763Z,9.51
2022-09-24T04:34:07.750Z,9.62
2022-09-24T04:36:34.580Z,9.60
2022-09-24T04:39:03.504Z,9.58
2022-09-24T04:41:30.722Z,9.78
2022-09-24T04:43:58.251Z,9.61
2022-09-24T04:46:25.004Z,9.66
2022-09-24T04:48:51.744Z,9.52
2022-09-24T04:51:19.496Z,9.49
2022-09-24T04:53:48.033Z,9.61
2022-09-24T04:56:16.088Z,9.49
2022-09-24T04:58:42.705Z,9.68
2022-09-24T05:01:10.484Z,9.60
2022-09-24T05:03:37.119Z,9.59
2022-09-24T05:06:03.780Z,9.63
2022-09-24T05:08:30.393Z,9.39
2022-09-24T05:10:57.093Z,9.34
2022-09-24T05:13:23.661Z,9.56
2022-09-24T05:15:50.692Z,9.43
2022-09-24T05:18:17.381Z,9.44
2022-09-24T05:20:44.260Z,9.62
2022-09-24T05:23:10.936Z,9.47
2022-09-24T05:25:57.568Z,9.48
2022-09-24T05:28:24.885Z,9.59
2022-09-24T05:30:51.517Z,9.45
2022-09-24T05:33:18.243Z,9.57
2022-09-24T05:35:44.808Z,9.62
2022-09-24T05:38:11.396Z,9.52
2022-09-24T05:40:50.092Z,9.67
2022-09-24T05:43:19.343Z,9.65
2022-09-24T05:45:46.298Z,9.63
2022-09-24T05:48:12.943Z,9.81
2022-09-24T05:50:39.735Z,9.72
2022-09-24T05:53:06.414Z,9.86
2022-09-24T05:55:33.633Z,9.96
2022-09-24T05:58:08.767Z,9.94
2022-09-24T06:00:36.373Z,10.15
2022-09-24T06:03:11.062Z,10.13
2022-09-24T06:05:40.031Z,10.17
2022-09-24T06:08:08.780Z,10.34
2022-09-24T06:10:36.437Z,10.24
2022-09-24T06:13:04.474Z,10.40
2022-09-24T06:15:31.230Z,10.37
2022-09-24T06:17:59.926Z,10.38
2022-09-24T06:20:26.524Z,10.47
2022-09-24T06:22:57.626Z,10.34
2022-09-24T06:25:25.351Z,10.50
2022-09-24T06:28:01.566Z,10.43
2022-09-24T06:30:40.067Z,10.49
2022-09-24T06:33:12.923Z,10.55
2022-09-24T06:35:42.803Z,10.48
2022-09-24T06:38:12.916Z,10.64
2022-09-24T06:40:41.222Z,10.48
2022-09-24T06:43:09.907Z,10.60
2022-09-24T06:45:36.667Z,10.59
2022-09-24T06:48:05.948Z,10.55
2022-09-24T06:50:34.510Z,10.75
2022-09-24T06:53:05.402Z,10.89
2022-09-24T06:55:34.290Z,11.03
2022-09-24T06:58:06.759Z,10.83
2022-09-24T07:00:34.349Z,10.82
2022-09-24T07:03:01.100Z,11.00
2022-09-24T07:05:27.826Z,11.15
2022-09-24T07:07:54.647Z,10.86
2022-09-24T07:10:21.624Z,10.90
2022-09-24T07:12:48.292Z,11.08
2022-09-24T07:15:14.904Z,11.14
2022-09-24T07:17:41.529Z,10.90
2022-09-24T07:20:08.748Z,11.06
2022-09-24T07:22:42.590Z,11.22
2022-09-24T07:25:13.515Z,10.95
2022-09-24T07:27:40.148Z,10.98
2022-09-24T07:30:08.533Z,10.99
2022-09-24T07:32:35.364Z,10.84
2022-09-24T07:35:02.247Z,11.02
2022-09-24T07:37:28.848Z,10.91
2022-09-24T07:39:57.273Z,10.95
2022-09-24T07:42:25.717Z,11.13
2022-09-24T07:44:54.437Z,10.94
2022-09-24T07:47:23.296Z,11.00
2022-09-24T07:49:49.944Z,11.00
2022-09-24T07:52:16.703Z,10.92
2022-09-24T07:54:43.385Z,11.10
2022-09-24T07:57:13.631Z,10.93
2022-09-24T07:59:41.647Z,11.05
2022-09-24T08:02:18.141Z,11.00
2022-09-24T08:04:45.415Z,10.98
2022-09-24T08:07:12.880Z,11.14
2022-09-24T08:09:40.336Z,10.97
2022-09-24T08:12:07.724Z,11.12
2022-09-24T08:14:36.823Z,10.99
2022-09-24T08:17:03.447Z,11.05
2022-09-24T08:19:31.381Z,11.15
2022-09-24T08:21:58.726Z,10.99
2022-09-24T08:24:25.973Z,11.22
2022-09-24T08:26:52.562Z,11.08
2022-09-24T08:29:21.338Z,11.13
2022-09-24T08:31:47.957Z,11.14
2022-09-24T08:34:15.204Z,11.04
2022-09-24T08:36:43.136Z,11.20
2022-09-24T08:39:10.586Z,11.00
2022-09-24T08:41:48.977Z,11.10
2022-09-24T08:44:49.788Z,11.02
2022-09-24T08:47:39.485Z,11.03
2022-09-24T08:50:14.762Z,11.01
2022-09-24T08:53:11.901Z,11.02
2022-09-24T08:56:05.533Z,11.07
2022-09-24T08:58:43.508Z,10.98
2022-09-24T09:01:11.214Z,11.12
2022-09-24T09:04:12.070Z,10.94
2022-09-24T09:07:16.373Z,11.10
2022-09-24T09:09:52.196Z,10.92
2022-09-24T09:12:45.644Z,11.12
2022-09-24T09:15:18.128Z,10.94
2022-09-24T09:17:54.969Z,11.06
2022-09-24T09:20:24.457Z,11.07
2022-09-24T09:22:53.435Z,11.09
2022-09-24T09:25:27.145Z,11.25
2022-09-24T09:28:23.238Z,11.10
2022-09-24T09:31:19.292Z,11.31
2022-09-24T09:34:09.895Z,11.16
2022-09-24T09:36:43.497Z,11.26
2022-09-24T09:39:47.653Z,11.27
2022-09-24T09:42:28.787Z,11.22
2022-09-24T09:44:55.544Z,11.37
2022-09-24T09:47:36.217Z,11.18
2022-09-24T09:50:17.282Z,11.34
2022-09-24T09:52:46.748Z,11.32
2022-09-24T09:55:28.061Z,11.26
2022-09-24T09:58:10.191Z,11.40
2022-09-24T10:00:37.225Z,11.19
2022-09-24T10:03:04.230Z,11.33
2022-09-24T10:05:31.154Z,11.39
2022-09-24T10:07:57.985Z,11.27
2022-09-24T10:10:27.167Z,11.46
2022-09-24T10:13:13.961Z,11.37
2022-09-24T10:15:53.761Z,11.40
2022-09-24T10:18:58.512Z,11.55
2022-09-24T10:21:34.548Z,11.36
2022-09-24T10:24:09.023Z,11.56
2022-09-24T10:26:39.846Z,11.51
2022-09-24T10:29:37.238Z,11.42
2022-09-24T10:32:05.812Z,11.65
2022-09-24T10:34:32.898Z,11.52
2022-09-24T10:37:12.936Z,11.58
2022-09-24T10:39:39.552Z,11.74
2022-09-24T10:42:10.185Z,11.57
2022-09-24T10:44:37.496Z,11.66
2022-09-24T10:47:25.497Z,11.75
2022-09-24T10:50:13.721Z,11.53
2022-09-24T10:52:53.677Z,11.71
2022-09-24T10:55:37.573Z,11.61
2022-09-24T10:58:37.383Z,11.60
2022-09-24T11:01:17.420Z,11.74
2022-09-24T11:04:23.272Z,11.55
2022-09-24T11:06:52.796Z,11.73
2022-09-24T11:09:29.180Z,11.75
2022-09-24T11:12:05.347Z,11.60
2022-09-24T11:14:47.157Z,11.80
2022-09-24T11:17:26.483Z,11.69
2022-09-24T11:20:02.408Z,11.70
2022-09-24T11:22:51.962Z,11.93
2022-09-24T11:25:50.844Z,11.71
2022-09-24T11:28:31.188Z,11.87
2022-09-24T11:31:16.023Z,12.02
2022-09-24T11:33:52.293Z,11.75
2022-09-24T11:36:33.940Z,11.88
2022-09-24T11:39:28.789Z,12.03
2022-09-24T11:42:16.755Z,11.95
2022-09-24T11:45:06.926Z,11.90
2022-09-24T11:47:48.665Z,12.09
2022-09-24T11:50:26.260Z,12.22
2022-09-24T11:53:15.070Z,12.10
2022-09-24T11:55:51.726Z,12.07
2022-09-24T11:58:27.224Z,12.28
2022-09-24T12:01:04.183Z,12.17
2022-09-24T12:03:53.229Z,12.10
2022-09-24T12:06:33.552Z,12.31
2022-09-24T12:09:27.717Z,12.44
2022-09-24T12:12:02.625Z,12.18
2022-09-24T12:14:45.160Z,12.22
2022-09-24T12:17:21.417Z,12.43
2022-09-24T12:20:00.959Z,12.56
2022-09-24T12:22:29.569Z,12.70
2022-09-24T12:25:00.178Z,12.79
2022-09-24T12:27:36.819Z,12.86
2022-09-24T12:31:09.963Z,12.88
2022-09-24T12:34:07.844Z,12.88
2022-09-24T12:36:57.455Z,12.94
2022-09-24T12:39:29.437Z,13.00
2022-09-24T12:42:06.890Z,13.06
2022-09-24T12:44:43.383Z,13.09
2022-09-24T12:47:23.260Z,13.11
2022-09-24T12:49:56.800Z,13.18
2022-09-24T12:52:27.343Z,13.22
2022-09-24T12:55:02.241Z,13.28
2022-09-24T12:57:49.378Z,13.32
2022-09-24T13:00:34.389Z,13.35
2022-09-24T13:03:03.243Z,13.33
2022-09-24T13:05:46.237Z,12.79
2022-09-24T13:08:16.999Z,12.87
2022-09-24T13:11:00.910Z,13.02
2022-09-24T13:13:31.733Z,13.10
2022-09-24T13:16:18.888Z,12.86
2022-09-24T13:19:03.820Z,12.62
2022-09-24T13:21:31.273Z,12.82
2022-09-24T13:23:58.000Z,13.00
2022-09-24T13:26:24.553Z,13.14
2022-09-24T13:28:58.715Z,13.22
2022-09-24T13:31:28.494Z,13.26
2022-09-24T13:34:05.912Z,13.29
2022-09-24T13:36:33.078Z,13.36
2022-09-24T13:39:22.457Z,13.38
2022-09-24T13:41:59.565Z,13.22
2022-09-24T13:44:40.508Z,12.85
2022-09-24T13:47:17.084Z,12.98
2022-09-24T13:49:50.197Z,13.11
2022-09-24T13:52:32.015Z,13.22
2022-09-24T13:55:07.280Z,13.29
2022-09-24T13:57:44.655Z,12.91
2022-09-24T14:00:17.207Z,12.86
2022-09-24T14:02:55.843Z,13.04
2022-09-24T14:05:23.366Z,13.20
2022-09-24T14:08:04.783Z,13.30
2022-09-24T14:10:32.047Z,13.36
2022-09-24T14:13:21.861Z,12.95
2022-09-24T14:15:54.482Z,13.01
2022-09-24T14:18:22.172Z,13.20
2022-09-24T14:21:10.792Z,13.34
2022-09-24T14:23:53.775Z,13.39
2022-09-24T14:26:31.112Z,13.42
2022-09-24T14:29:00.945Z,13.31
2022-09-24T14:31:30.498Z,12.94
2022-09-24T14:34:00.140Z,13.07
2022-09-24T14:36:29.474Z,13.24
2022-09-24T14:39:06.834Z,13.32
2022-09-24T14:41:36.532Z,13.41
2022-09-24T14:44:08.780Z,13.46
2022-09-24T14:46:48.956Z,13.31
2022-09-24T14:49:18.785Z,12.92
2022-09-24T14:52:02.857Z,13.07
2022-09-24T14:54:43.076Z,13.20
2022-09-24T14:57:19.975Z,13.32
2022-09-24T14:59:47.234Z,13.40
2022-09-24T15:02:23.832Z,12.95
2022-09-24T15:04:54.897Z,12.99
2022-09-24T15:07:24.586Z,13.19
2022-09-24T15:09:57.152Z,13.34
2022-09-24T15:12:35.496Z,13.44
2022-09-24T15:15:03.828Z,13.51
2022-09-24T15:17:33.148Z,13.58
2022-09-24T15:20:00.514Z,13.69
2022-09-24T15:22:28.997Z,13.72
2022-09-24T15:25:01.567Z,13.69
2022-09-24T15:27:31.264Z,13.75
2022-09-24T15:30:00.031Z,13.77
2022-09-24T15:32:33.044Z,13.78
2022-09-24T15:34:59.935Z,13.85
2022-09-24T15:37:28.699Z,13.88
2022-09-24T15:40:04.900Z,13.86
2022-09-24T15:42:31.538Z,13.85
2022-09-24T15:44:58.740Z,13.83
2022-09-24T15:47:25.379Z,13.28
2022-09-24T15:49:52.190Z,13.27
2022-09-24T15:52:25.496Z,13.40
2022-09-24T15:54:54.969Z,13.52
2022-09-24T15:57:29.246Z,13.61
2022-09-24T15:59:55.811Z,13.66
2022-09-24T16:02:32.634Z,13.69
2022-09-24T16:05:03.511Z,13.72
2022-09-24T16:07:30.827Z,13.67
2022-09-24T16:09:57.444Z,13.66
2022-09-24T16:12:28.060Z,13.69
2022-09-24T16:14:59.067Z,13.69
2022-09-24T16:17:26.840Z,13.68
2022-09-24T16:19:53.640Z,13.66
2022-09-24T16:22:20.883Z,13.66
2022-09-24T16:24:47.799Z,13.65
2022-09-24T16:27:14.619Z,13.64
2022-09-24T16:29:41.240Z,13.63
2022-09-24T16:32:07.796Z,13.63
2022-09-24T16:34:35.269Z,13.63
2022-09-24T16:37:01.876Z,13.09
2022-09-24T16:39:28.542Z,12.87
2022-09-24T16:41:55.320Z,13.05
2022-09-24T16:44:21.949Z,13.14
2022-09-24T16:46:48.637Z,13.25
2022-09-24T16:49:15.361Z,13.29
2022-09-24T16:51:41.915Z,13.32
2022-09-24T16:54:08.783Z,13.39
2022-09-24T16:56:37.611Z,13.38
2022-09-24T16:59:04.424Z,13.40
2022-09-24T17:01:31.052Z,13.35
2022-09-24T17:04:01.172Z,13.38
2022-09-24T17:06:30.315Z,13.42
2022-09-24T17:09:16.209Z,13.43
2022-09-24T17:11:43.177Z,12.92
2022-09-24T17:14:13.362Z,12.73
2022-09-24T17:16:40.930Z,12.90
2022-09-24T17:19:09.106Z,13.02
2022-09-24T17:21:40.654Z,13.05
2022-09-24T17:24:07.925Z,13.09
2022-09-24T17:26:37.225Z,13.05
2022-09-24T17:29:04.439Z,13.05
2022-09-24T17:31:31.708Z,13.11
2022-09-24T17:34:03.372Z,13.17
2022-09-24T17:36:32.984Z,13.21
2022-09-24T17:39:00.239Z,13.24
2022-09-24T17:41:28.776Z,13.26
2022-09-24T17:43:58.864Z,13.28
2022-09-24T17:46:27.597Z,13.29
2022-09-24T17:48:58.841Z,13.34
2022-09-24T17:51:34.079Z,13.33
2022-09-24T17:54:06.017Z,13.33
2022-09-24T17:56:38.758Z,13.34
2022-09-24T17:59:10.041Z,13.33
2022-09-24T18:01:38.505Z,13.33
2022-09-24T18:04:07.387Z,13.34
2022-09-24T18:06:37.761Z,13.34
2022-09-24T18:09:05.732Z,13.31
2022-09-24T18:11:40.165Z,13.30
2022-09-24T18:14:07.516Z,13.33
2022-09-24T18:16:34.547Z,13.35
2022-09-24T18:19:02.563Z,13.37
2022-09-24T18:21:32.369Z,13.35
2022-09-24T18:24:00.657Z,13.24
2022-09-24T18:26:39.314Z,13.17
2022-09-24T18:29:16.764Z,13.18
2022-09-24T18:31:46.612Z,13.20
2022-09-24T18:34:15.385Z,13.20
2022-09-24T18:36:46.272Z,13.18
2022-09-24T18:39:16.648Z,13.20
2022-09-24T18:41:45.519Z,13.16
2022-09-24T18:44:12.503Z,13.09
2022-09-24T18:46:39.603Z,13.02
2022-09-24T18:49:06.557Z,13.00
2022-09-24T18:51:36.024Z,13.05
2022-09-24T18:54:06.303Z,13.06
2022-09-24T18:56:36.322Z,13.04
2022-09-24T18:59:12.584Z,13.05
2022-09-24T19:01:40.246Z,13.10
2022-09-24T19:04:10.927Z,12.99
2022-09-24T19:06:39.896Z,13.01
2022-09-24T19:09:07.135Z,13.04
2022-09-24T19:11:34.532Z,12.94
2022-09-24T19:14:04.606Z,12.93
2022-09-24T19:16:32.217Z,12.97
2022-09-24T19:19:00.523Z,12.98
2022-09-24T19:21:27.304Z,12.99
2022-09-24T19:23:56.304Z,12.99
2022-09-24T19:26:28.978Z,12.98
2022-09-24T19:28:56.267Z,12.99
2022-09-24T19:31:33.525Z,12.95
2022-09-24T19:34:05.823Z,13.01
2022-09-24T19:36:43.050Z,13.00
2022-09-24T19:39:12.914Z,12.99
2022-09-24T19:41:39.636Z,13.05
2022-09-24T19:44:09.206Z,13.11
2022-09-24T19:46:37.255Z,13.07
2022-09-24T19:49:04.231Z,13.03
2022-09-24T19:51:32.733Z,12.98
2022-09-24T19:54:07.383Z,13.02
2022-09-24T19:56:36.139Z,13.07
2022-09-24T19:59:03.540Z,13.10
2022-09-24T20:01:33.081Z,13.09
2022-09-24T20:04:04.029Z,13.13
2022-09-24T20:06:33.913Z,13.12
2022-09-24T20:09:00.767Z,13.13
2022-09-24T20:11:27.442Z,13.10
2022-09-24T20:13:56.048Z,13.05
2022-09-24T20:16:28.081Z,12.76
2022-09-24T20:18:57.590Z,12.23
2022-09-24T20:21:33.739Z,12.35
2022-09-24T20:24:01.436Z,12.52
2022-09-24T20:26:49.073Z,12.64
2022-09-24T20:29:16.816Z,12.69
2022-09-24T20:31:51.360Z,12.71
2022-09-24T20:34:18.449Z,12.29
2022-09-24T20:36:45.105Z,12.08
2022-09-24T20:39:11.719Z,12.28
2022-09-24T20:41:39.014Z,12.41
2022-09-24T20:44:05.737Z,12.50
2022-09-24T20:46:32.446Z,12.60
2022-09-24T20:49:00.224Z,12.13
2022-09-24T20:51:33.691Z,12.00
2022-09-24T20:54:00.954Z,12.19
2022-09-24T20:56:30.882Z,12.32
2022-09-24T20:58:58.813Z,12.14
2022-09-24T21:01:25.611Z,11.86
2022-09-24T21:03:55.078Z,11.98
2022-09-24T21:06:23.101Z,12.08
2022-09-24T21:08:50.257Z,12.11
2022-09-24T21:11:22.596Z,11.75
2022-09-24T21:13:56.181Z,11.88
2022-09-24T21:16:25.714Z,12.04
2022-09-24T21:18:58.172Z,12.17
2022-09-24T21:21:30.512Z,11.81
2022-09-24T21:24:02.438Z,11.74
2022-09-24T21:26:35.035Z,11.90
2022-09-24T21:29:12.527Z,12.04
2022-09-24T21:31:40.136Z,11.59
2022-09-24T21:34:08.195Z,11.69
2022-09-24T21:36:45.917Z,11.85
2022-09-24T21:39:23.283Z,11.87
2022-09-24T21:41:54.938Z,11.64
2022-09-24T21:44:21.920Z,11.78
2022-09-24T21:46:52.971Z,11.97
2022-09-24T21:49:20.362Z,11.82
2022-09-24T21:51:47.582Z,11.64
2022-09-24T21:54:17.482Z,11.80
2022-09-24T21:56:46.041Z,11.96
2022-09-24T21:59:31.589Z,11.68
2022-09-24T22:01:58.967Z,11.71
2022-09-24T22:04:25.609Z,11.89
2022-09-24T22:06:52.680Z,11.81
2022-09-24T22:09:20.211Z,11.63
2022-09-24T22:11:46.852Z,11.76
2022-09-24T22:14:13.877Z,11.86
2022-09-24T22:16:40.525Z,11.65
2022-09-24T22:19:09.249Z,11.56
2022-09-24T22:21:39.069Z,11.73
2022-09-24T22:24:07.924Z,11.86
2022-09-24T22:26:36.900Z,11.50
2022-09-24T22:29:08.018Z,11.59
2022-09-24T22:31:37.045Z,11.72
2022-09-24T22:34:24.539Z,11.59
2022-09-24T22:36:53.672Z,11.46
2022-09-24T22:39:20.390Z,11.66
2022-09-24T22:41:47.049Z,11.69
2022-09-24T22:44:13.777Z,11.43
2022-09-24T22:46:41.358Z,11.58
2022-09-24T22:49:08.344Z,11.74
2022-09-24T22:51:38.593Z,11.43
2022-09-24T22:54:06.844Z,11.46
2022-09-24T22:56:34.999Z,11.62
2022-09-24T22:59:01.668Z,11.46
2022-09-24T23:01:31.931Z,11.34
2022-09-24T23:03:59.826Z,11.53
2022-09-24T23:06:26.828Z,11.54
2022-09-24T23:08:55.180Z,11.32
2022-09-24T23:11:24.575Z,11.47
2022-09-24T23:13:57.029Z,11.60
2022-09-24T23:16:26.117Z,11.28
2022-09-24T23:18:58.759Z,11.33
2022-09-24T23:21:30.012Z,11.51
2022-09-24T23:24:04.876Z,11.28
2022-09-24T23:26:33.672Z,11.31
2022-09-24T23:29:00.864Z,11.50
2022-09-24T23:31:32.926Z,11.31
2022-09-24T23:34:01.397Z,11.25
2022-09-24T23:36:31.227Z,11.41
2022-09-24T23:39:01.184Z,11.30
2022-09-24T23:41:30.008Z,11.15
2022-09-24T23:43:56.660Z,11.31
2022-09-24T23:46:23.495Z,11.17
2022-09-24T23:48:50.245Z,11.02
2022-09-24T23:51:16.881Z,11.20
2022-09-24T23:53:43.996Z,11.19
2022-09-24T23:56:12.168Z,10.92
2022-09-24T23:58:42.215Z,11.06
